Time,TemperatureF,DewpointF,PressureIn,WindDirection,WindDirectionDegrees,WindSpeedMPH,WindSpeedGustMPH,Humidity,HourlyPrecipIn,Conditions,Clouds,dailyrainin,SoftwareType,DateUTC
2013-08-24 00:01:00,68.4,59.0,30.11,SE,134,4.0,6.0,72,0.00,,,0.00,weatherlink.com 1.10,2013-08-24 05:01:00,
2013-08-24 00:16:00,68.1,59.0,30.11,SE,141,4.0,5.0,73,0.00,,,0.00,weatherlink.com 1.10,2013-08-24 05:16:00,
2013-08-24 00:32:00,68.0,59.0,30.11,SSE,160,1.0,6.0,72,0.00,,,0.00,weatherlink.com 1.10,2013-08-24 05:32:00,
2013-08-24 00:46:00,67.6,59.0,30.12,SE,134,3.0,6.0,73,0.00,,,0.00,weatherlink.com 1.10,2013-08-24 05:46:00,
2013-08-24 01:01:00,67.1,59.0,30.12,SSE,155,5.0,6.0,74,0.00,,,0.00,weatherlink.com 1.10,2013-08-24 06:01:00,
2013-08-24 01:16:00,66.6,58.0,30.12,SSE,162,2.0,6.0,75,0.00,,,0.00,weatherlink.com 1.10,2013-08-24 06:16:00,
2013-08-24 01:31:00,66.0,58.0,30.12,South,170,3.0,7.0,76,0.00,,,0.00,weatherlink.com 1.10,2013-08-24 06:31:00,
2013-08-24 01:46:00,65.7,58.0,30.12,SSE,160,6.0,7.0,76,0.00,,,0.00,weatherlink.com 1.10,2013-08-24 06:46:00,
2013-08-24 02:01:00,65.4,58.0,30.12,SE,144,7.0,8.0,76,0.00,,,0.00,weatherlink.com 1.10,2013-08-24 07:01:00,
2013-08-24 02:16:00,65.6,58.0,30.13,SE,128,3.0,8.0,75,0.00,,,0.00,weatherlink.com 1.10,2013-08-24 07:16:00,
2013-08-24 02:31:00,65.6,57.0,30.13,SSE,162,7.0,7.0,74,0.00,,,0.00,weatherlink.com 1.10,2013-08-24 07:31:00,
2013-08-24 02:46:00,65.5,57.0,30.13,South,175,5.0,8.0,74,0.00,,,0.00,weatherlink.com 1.10,2013-08-24 07:46:00,
2013-08-24 03:01:00,65.4,57.0,30.14,SSE,160,5.0,8.0,74,0.00,,,0.00,weatherlink.com 1.10,2013-08-24 08:01:00,
2013-08-24 03:16:00,65.2,57.0,30.14,SSE,165,3.0,7.0,74,0.00,,,0.00,weatherlink.com 1.10,2013-08-24 08:16:00,
2013-08-24 03:31:00,65.3,56.0,30.14,South,169,6.0,8.0,73,0.00,,,0.00,weatherlink.com 1.10,2013-08-24 08:31:00,
2013-08-24 03:46:00,65.0,57.0,30.14,South,189,3.0,8.0,74,0.00,,,0.00,weatherlink.com 1.10,2013-08-24 08:46:00,
2013-08-24 04:01:00,64.9,56.0,30.14,South,191,3.0,7.0,74,0.00,,,0.00,weatherlink.com 1.10,2013-08-24 09:01:00,
2013-08-24 04:16:00,64.8,56.0,30.14,SSE,160,3.0,6.0,74,0.00,,,0.00,weatherlink.com 1.10,2013-08-24 09:16:00,
2013-08-24 04:31:00,64.6,57.0,30.15,South,176,4.0,9.0,75,0.00,,,0.00,weatherlink.com 1.10,2013-08-24 09:31:00,
2013-08-24 04:46:00,64.3,56.0,30.15,SSE,163,4.0,7.0,75,0.00,,,0.00,weatherlink.com 1.10,2013-08-24 09:46:00,
2013-08-24 05:01:00,64.2,57.0,30.15,South,177,3.0,7.0,76,0.00,,,0.00,weatherlink.com 1.10,2013-08-24 10:01:00,
2013-08-24 05:16:00,63.8,56.0,30.15,SSE,150,2.0,6.0,77,0.00,,,0.00,weatherlink.com 1.10,2013-08-24 10:16:00,
2013-08-24 05:31:00,63.4,56.0,30.16,South,172,3.0,6.0,78,0.00,,,0.00,weatherlink.com 1.10,2013-08-24 10:31:00,
2013-08-24 05:46:00,63.2,57.0,30.16,SSE,165,2.0,6.0,79,0.00,,,0.00,weatherlink.com 1.10,2013-08-24 10:46:00,
2013-08-24 06:01:00,62.8,57.0,30.16,SSW,194,2.0,5.0,80,0.00,,,0.00,weatherlink.com 1.10,2013-08-24 11:01:00,
2013-08-24 06:16:00,62.8,57.0,30.16,SSE,165,2.0,7.0,80,0.00,,,0.00,weatherlink.com 1.10,2013-08-24 11:16:00,
2013-08-24 06:31:00,62.5,57.0,30.17,SSE,153,4.0,7.0,81,0.00,,,0.00,weatherlink.com 1.10,2013-08-24 11:31:00,
2013-08-24 06:46:00,62.5,57.0,30.17,SE,137,5.0,7.0,82,0.00,,,0.00,weatherlink.com 1.10,2013-08-24 11:46:00,
2013-08-24 07:01:00,62.8,57.0,30.18,South,169,2.0,6.0,82,0.00,,,0.00,weatherlink.com 1.10,2013-08-24 12:01:00,
2013-08-24 07:16:00,63.3,58.0,30.18,SSE,152,4.0,7.0,82,0.00,,,0.00,weatherlink.com 1.10,2013-08-24 12:16:00,
2013-08-24 07:31:00,63.6,58.0,30.19,SSE,162,4.0,6.0,82,0.00,,,0.00,weatherlink.com 1.10,2013-08-24 12:31:00,
2013-08-24 07:47:00,64.5,59.0,30.19,SSE,166,3.0,7.0,81,0.00,,,0.00,weatherlink.com 1.10,2013-08-24 12:47:00,
2013-08-24 08:02:00,65.9,59.0,30.19,South,186,2.0,7.0,79,0.00,,,0.00,weatherlink.com 1.10,2013-08-24 13:02:00,
2013-08-24 08:17:00,66.9,60.0,30.19,SSW,193,6.0,9.0,78,0.00,,,0.00,weatherlink.com 1.10,2013-08-24 13:17:00,
2013-08-24 08:32:00,68.2,61.0,30.20,SW,234,5.0,9.0,77,0.00,,,0.00,weatherlink.com 1.10,2013-08-24 13:32:00,
2013-08-24 08:47:00,69.4,62.0,30.20,South,186,8.0,8.0,77,0.00,,,0.00,weatherlink.com 1.10,2013-08-24 13:47:00,
2013-08-24 09:02:00,70.4,63.0,30.19,South,180,5.0,10.0,76,0.00,,,0.00,weatherlink.com 1.10,2013-08-24 14:02:00,
2013-08-24 09:17:00,72.2,64.0,30.19,South,190,6.0,7.0,75,0.00,,,0.00,weatherlink.com 1.10,2013-08-24 14:17:00,
2013-08-24 09:32:00,73.5,64.0,30.18,WSW,248,6.0,11.0,73,0.00,,,0.00,weatherlink.com 1.10,2013-08-24 14:32:00,
2013-08-24 09:47:00,74.7,65.0,30.18,SSW,213,4.0,12.0,71,0.00,,,0.00,weatherlink.com 1.10,2013-08-24 14:47:00,
2013-08-24 10:02:00,76.2,65.0,30.19,WSW,245,3.0,11.0,69,0.00,,,0.00,weatherlink.com 1.10,2013-08-24 15:02:00,
2013-08-24 10:17:00,77.2,66.0,30.19,South,172,6.0,12.0,68,0.00,,,0.00,weatherlink.com 1.10,2013-08-24 15:17:00,
2013-08-24 10:32:00,77.5,67.0,30.19,WSW,246,5.0,10.0,69,0.00,,,0.00,weatherlink.com 1.10,2013-08-24 15:32:00,
2013-08-24 10:47:00,78.1,66.0,30.19,South,176,4.0,10.0,67,0.00,,,0.00,weatherlink.com 1.10,2013-08-24 15:47:00,
2013-08-24 11:02:00,79.3,68.0,30.19,WNW,284,5.0,10.0,69,0.00,,,0.00,weatherlink.com 1.10,2013-08-24 16:02:00,
2013-08-24 11:17:00,79.8,67.0,30.19,West,259,3.0,11.0,66,0.00,,,0.00,weatherlink.com 1.10,2013-08-24 16:17:00,
2013-08-24 11:32:00,80.4,68.0,30.19,WNW,301,3.0,10.0,65,0.00,,,0.00,weatherlink.com 1.10,2013-08-24 16:32:00,
2013-08-24 11:47:00,80.7,68.0,30.19,SW,226,6.0,11.0,65,0.00,,,0.00,weatherlink.com 1.10,2013-08-24 16:47:00,
2013-08-24 12:02:00,81.6,68.0,30.18,South,189,3.0,8.0,63,0.00,,,0.00,weatherlink.com 1.10,2013-08-24 17:02:00,
2013-08-24 12:17:00,82.6,68.0,30.18,WSW,256,4.0,9.0,62,0.00,,,0.00,weatherlink.com 1.10,2013-08-24 17:17:00,
2013-08-24 12:32:00,83.4,68.0,30.17,West,273,8.0,12.0,60,0.00,,,0.00,weatherlink.com 1.10,2013-08-24 17:32:00,
2013-08-24 12:47:00,83.5,68.0,30.17,WSW,253,3.0,9.0,60,0.00,,,0.00,weatherlink.com 1.10,2013-08-24 17:47:00,
2013-08-24 13:03:00,85.0,69.0,30.16,SE,134,5.0,8.0,58,0.00,,,0.00,weatherlink.com 1.10,2013-08-24 18:03:00,
2013-08-24 13:18:00,84.4,68.0,30.16,South,191,7.0,10.0,59,0.00,,,0.00,weatherlink.com 1.10,2013-08-24 18:18:00,
2013-08-24 13:33:00,84.9,68.0,30.15,SW,218,3.0,10.0,58,0.00,,,0.00,weatherlink.com 1.10,2013-08-24 18:33:00,
2013-08-24 13:48:00,85.7,69.0,30.15,SSW,199,7.0,11.0,58,0.00,,,0.00,weatherlink.com 1.10,2013-08-24 18:48:00,
2013-08-24 14:03:00,85.5,69.0,30.14,West,266,3.0,11.0,58,0.00,,,0.00,weatherlink.com 1.10,2013-08-24 19:03:00,
2013-08-24 14:18:00,85.9,69.0,30.14,South,191,7.0,12.0,58,0.00,,,0.00,weatherlink.com 1.10,2013-08-24 19:18:00,
2013-08-24 14:33:00,86.2,69.0,30.14,West,262,8.0,10.0,57,0.00,,,0.00,weatherlink.com 1.10,2013-08-24 19:33:00,
2013-08-24 14:48:00,86.4,69.0,30.14,SW,220,6.0,9.0,56,0.00,,,0.00,weatherlink.com 1.10,2013-08-24 19:48:00,
2013-08-24 15:03:00,86.5,69.0,30.13,West,280,2.0,10.0,57,0.00,,,0.00,weatherlink.com 1.10,2013-08-24 20:03:00,
2013-08-24 15:18:00,85.8,69.0,30.13,South,186,6.0,11.0,58,0.00,,,0.00,weatherlink.com 1.10,2013-08-24 20:18:00,
2013-08-24 15:33:00,86.2,70.0,30.13,South,174,4.0,9.0,58,0.00,,,0.00,weatherlink.com 1.10,2013-08-24 20:33:00,
2013-08-24 15:48:00,85.9,70.0,30.12,South,187,6.0,9.0,59,0.00,,,0.00,weatherlink.com 1.10,2013-08-24 20:48:00,
2013-08-24 16:03:00,85.4,70.0,30.12,South,183,2.0,9.0,60,0.00,,,0.00,weatherlink.com 1.10,2013-08-24 21:03:00,
2013-08-24 16:18:00,85.6,71.0,30.11,South,186,4.0,10.0,61,0.00,,,0.00,weatherlink.com 1.10,2013-08-24 21:18:00,
2013-08-24 16:33:00,86.2,71.0,30.11,SSE,166,4.0,9.0,60,0.00,,,0.00,weatherlink.com 1.10,2013-08-24 21:33:00,
2013-08-24 16:48:00,86.6,70.0,30.11,South,190,6.0,10.0,58,0.00,,,0.00,weatherlink.com 1.10,2013-08-24 21:48:00,
2013-08-24 17:03:00,85.8,71.0,30.10,SW,221,6.0,8.0,62,0.00,,,0.00,weatherlink.com 1.10,2013-08-24 22:03:00,
2013-08-24 17:18:00,86.5,71.0,30.10,South,179,3.0,14.0,60,0.00,,,0.00,weatherlink.com 1.10,2013-08-24 22:18:00,
2013-08-24 17:33:00,86.3,71.0,30.10,SW,220,8.0,12.0,60,0.00,,,0.00,weatherlink.com 1.10,2013-08-24 22:33:00,
2013-08-24 17:48:00,85.6,71.0,30.09,SSE,149,6.0,10.0,61,0.00,,,0.00,weatherlink.com 1.10,2013-08-24 22:48:00,
2013-08-24 18:03:00,84.9,70.0,30.09,WSW,246,10.0,11.0,61,0.00,,,0.00,weatherlink.com 1.10,2013-08-24 23:03:00,
2013-08-24 18:18:00,84.1,70.0,30.10,SW,231,3.0,8.0,63,0.00,,,0.00,weatherlink.com 1.10,2013-08-24 23:18:00,
2013-08-24 18:33:00,83.4,70.0,30.10,WSW,253,6.0,10.0,64,0.00,,,0.00,weatherlink.com 1.10,2013-08-24 23:33:00,
2013-08-24 18:48:00,83.1,70.0,30.10,South,178,5.0,8.0,65,0.00,,,0.00,weatherlink.com 1.10,2013-08-24 23:48:00,
2013-08-24 19:03:00,83.1,70.0,30.10,SW,214,1.0,9.0,65,0.00,,,0.00,weatherlink.com 1.10,2013-08-25 00:03:00,
2013-08-24 19:18:00,82.7,70.0,30.10,South,189,4.0,10.0,65,0.00,,,0.00,weatherlink.com 1.10,2013-08-25 00:18:00,
2013-08-24 19:33:00,82.0,70.0,30.10,West,272,3.0,8.0,67,0.00,,,0.00,weatherlink.com 1.10,2013-08-25 00:33:00,
2013-08-24 19:48:00,81.4,69.0,30.10,SSW,196,5.0,9.0,67,0.00,,,0.00,weatherlink.com 1.10,2013-08-25 00:48:00,
2013-08-24 20:03:00,80.7,70.0,30.11,South,170,2.0,5.0,69,0.00,,,0.00,weatherlink.com 1.10,2013-08-25 01:03:00,
2013-08-24 20:18:00,80.0,70.0,30.11,South,191,3.0,5.0,71,0.00,,,0.00,weatherlink.com 1.10,2013-08-25 01:18:00,
2013-08-24 20:33:00,79.6,70.0,30.11,SSW,198,3.0,6.0,72,0.00,,,0.00,weatherlink.com 1.10,2013-08-25 01:33:00,
2013-08-24 20:48:00,79.0,70.0,30.11,South,182,4.0,6.0,73,0.00,,,0.00,weatherlink.com 1.10,2013-08-25 01:48:00,
2013-08-24 21:03:00,78.7,69.0,30.12,SSE,162,4.0,5.0,73,0.00,,,0.00,weatherlink.com 1.10,2013-08-25 02:03:00,
2013-08-24 21:18:00,78.5,70.0,30.12,South,186,4.0,5.0,74,0.00,,,0.00,weatherlink.com 1.10,2013-08-25 02:18:00,
2013-08-24 21:33:00,77.9,69.0,30.12,South,186,1.0,5.0,75,0.00,,,0.00,weatherlink.com 1.10,2013-08-25 02:33:00,
2013-08-24 21:48:00,77.5,69.0,30.13,South,183,2.0,4.0,76,0.00,,,0.00,weatherlink.com 1.10,2013-08-25 02:48:00,
2013-08-24 22:03:00,77.3,70.0,30.13,South,189,2.0,5.0,77,0.00,,,0.00,weatherlink.com 1.10,2013-08-25 03:03:00,
2013-08-24 22:18:00,77.1,69.0,30.13,South,172,3.0,7.0,77,0.00,,,0.00,weatherlink.com 1.10,2013-08-25 03:18:00,
2013-08-24 22:33:00,76.8,69.0,30.13,SSW,196,4.0,6.0,77,0.00,,,0.00,weatherlink.com 1.10,2013-08-25 03:33:00,
2013-08-24 22:48:00,76.6,69.0,30.13,SSW,200,4.0,7.0,78,0.00,,,0.00,weatherlink.com 1.10,2013-08-25 03:48:00,
2013-08-24 23:03:00,76.4,69.0,30.13,SW,217,2.0,6.0,78,0.00,,,0.00,weatherlink.com 1.10,2013-08-25 04:03:00,
2013-08-24 23:18:00,76.1,69.0,30.13,South,189,5.0,8.0,79,0.00,,,0.00,weatherlink.com 1.10,2013-08-25 04:18:00,
2013-08-24 23:33:00,76.1,69.0,30.13,SSE,166,3.0,7.0,79,0.00,,,0.00,weatherlink.com 1.10,2013-08-25 04:33:00,
2013-08-24 23:48:00,75.8,69.0,30.13,WSW,246,2.0,6.0,79,0.00,,,0.00,weatherlink.com 1.10,2013-08-25 04:48:00,